Time;durP1;ratioP1;P1;durP2;ratioP2;P2;SDS_P1;SDS_P2;PMS_P1;PMS_P2;Temp;Humidity;BMP_temperature;BMP_pressure;BME280_temperature;BME280_humidity;BME280_pressure;Samples;Min_cycle;Max_cycle;Signal;HPM_P1;HPM_P2
2023/05/15 00:01:01;;;;;;;38.22;27.08;;;;;;;11.52;100.00;101508.94;5047814;28;20047;-78
2023/05/15 00:03:28;;;;;;;41.13;27.10;;;;;;;11.48;100.00;101505.38;5034568;28;20053;-78
2023/05/15 00:05:56;;;;;;;39.28;26.80;;;;;;;11.44;100.00;101519.44;5016666;28;20468;-78
2023/05/15 00:08:26;;;;;;;41.35;26.65;;;;;;;11.40;100.00;101507.06;5014958;28;20040;-78
2023/05/15 00:10:53;;;;;;;46.15;29.00;;;;;;;11.38;100.00;101502.63;5003378;28;20053;-78
2023/05/15 00:13:28;;;;;;;42.47;29.02;;;;;;;11.32;100.00;101509.63;5052368;28;20049;-79
2023/05/15 00:15:56;;;;;;;35.22;26.17;;;;;;;11.31;100.00;101497.28;5046219;28;20044;-78
2023/05/15 00:18:23;;;;;;;38.63;27.02;;;;;;;11.30;100.00;101499.91;5033669;28;20044;-78
2023/05/15 00:20:52;;;;;;;43.00;29.25;;;;;;;11.27;100.00;101503.41;5039347;28;20052;-79
2023/05/15 00:23:20;;;;;;;35.65;26.50;;;;;;;11.23;100.00;101504.25;5062559;28;20158;-79
2023/05/15 00:25:47;;;;;;;41.42;27.45;;;;;;;11.23;100.00;101500.75;4999690;28;20057;-79
2023/05/15 00:28:15;;;;;;;44.40;29.17;;;;;;;11.21;100.00;101495.44;5020261;28;20056;-78
2023/05/15 00:30:43;;;;;;;43.45;30.08;;;;;;;11.18;100.00;101487.47;5041285;28;20362;-78
2023/05/15 00:33:10;;;;;;;46.58;29.88;;;;;;;11.14;100.00;101487.44;5028053;28;20052;-79
2023/05/15 00:35:37;;;;;;;38.83;27.45;;;;;;;11.08;100.00;101481.22;5046294;28;20051;-79
2023/05/15 00:38:05;;;;;;;47.10;29.77;;;;;;;11.07;100.00;101486.47;5047759;28;20048;-79
2023/05/15 00:40:35;;;;;;;51.05;31.45;;;;;;;11.06;100.00;101487.38;5015820;28;20044;-78
2023/05/15 00:43:03;;;;;;;49.75;32.45;;;;;;;11.02;100.00;101469.72;5037661;28;20796;-78
2023/05/15 00:45:31;;;;;;;50.25;31.17;;;;;;;11.02;100.00;101473.25;5031237;28;20049;-79
2023/05/15 00:48:00;;;;;;;56.58;34.85;;;;;;;11.00;100.00;101472.34;5032422;28;20053;-79
2023/05/15 00:50:28;;;;;;;50.10;33.08;;;;;;;11.00;100.00;101474.09;5052190;28;20611;-79
2023/05/15 00:52:56;;;;;;;50.13;31.88;;;;;;;10.98;100.00;101475.81;5018924;28;20044;-78
2023/05/15 00:55:25;;;;;;;54.58;32.63;;;;;;;10.94;100.00;101466.97;5015006;28;20052;-79
2023/05/15 00:57:55;;;;;;;56.45;34.60;;;;;;;10.94;100.00;101472.25;5042889;28;20033;-79
2023/05/15 01:00:25;;;;;;;50.92;33.17;;;;;;;10.96;100.00;101477.56;5037005;28;20056;-78
2023/05/15 01:02:53;;;;;;;50.30;31.95;;;;;;;10.93;100.00;101473.16;5006784;28;20053;-79
2023/05/15 01:05:21;;;;;;;51.55;32.45;;;;;;;10.88;100.00;101480.97;5055692;28;20044;-78
2023/05/15 01:08:42;;;;;;;59.33;34.10;;;;;;;10.84;100.00;101478.31;5062762;28;20048;-79
2023/05/15 01:11:14;;;;;;;;;;;;;;;10.80;100.00;101477.38;5014979;28;20056;-79
2023/05/15 01:13:42;;;;;;;51.53;31.88;;;;;;;10.76;100.00;101483.47;5046933;28;19920;-78
2023/05/15 01:16:09;;;;;;;58.40;35.03;;;;;;;10.76;100.00;101480.84;5025973;28;20056;-79
2023/05/15 01:18:37;;;;;;;52.63;33.63;;;;;;;10.75;100.00;101483.47;5056942;28;20036;-79
2023/05/15 01:21:33;;;;;;;64.60;37.65;;;;;;;10.73;100.00;101484.31;5050437;28;20067;-79
2023/05/15 01:24:30;;;;;;;52.72;35.08;;;;;;;10.68;100.00;101479.84;5050773;28;20351;-78
2023/05/15 01:27:22;;;;;;;63.42;37.30;;;;;;;10.66;100.00;101481.56;5015392;28;20055;-79
2023/05/15 01:30:24;;;;;;;62.13;35.53;;;;;;;10.63;100.00;101478.94;5048990;28;20401;-79
2023/05/15 01:32:54;;;;;;;62.95;34.92;;;;;;;10.53;100.00;101470.00;5022983;28;20053;-78
2023/05/15 01:35:30;;;;;;;58.70;34.85;;;;;;;10.47;100.00;101473.44;5049856;28;20041;-79
2023/05/15 01:38:23;;;;;;;62.42;35.50;;;;;;;10.45;100.00;101475.19;5048247;28;20051;-78
2023/05/15 01:40:56;;;;;;;57.00;32.40;;;;;;;10.46;100.00;101470.78;5065650;28;20401;-78
2023/05/15 01:43:28;;;;;;;60.50;34.33;;;;;;;10.47;100.00;101481.34;5013532;28;20045;-78
2023/05/15 01:45:57;;;;;;;62.05;35.80;;;;;;;10.49;100.00;101476.09;5038930;28;20413;-78
2023/05/15 01:48:27;;;;;;;62.78;34.13;;;;;;;10.51;100.00;101483.16;5044247;28;20043;-78
2023/05/15 01:51:02;;;;;;;54.20;31.00;;;;;;;10.52;100.00;101481.41;5047710;28;20179;-79
2023/05/15 01:53:32;;;;;;;51.28;30.85;;;;;;;10.53;100.00;101472.66;5057724;28;20056;-78
2023/05/15 01:56:01;;;;;;;51.97;28.73;;;;;;;10.52;100.00;101484.91;5043228;28;20044;-78
2023/05/15 01:58:30;;;;;;;64.53;32.95;;;;;;;10.49;100.00;101478.72;5025138;28;20045;-78
2023/05/15 02:00:59;;;;;;;55.63;31.85;;;;;;;10.48;100.00;101485.75;5013342;28;20409;-78
2023/05/15 02:03:33;;;;;;;71.63;32.38;;;;;;;10.45;100.00;101477.81;5029200;28;20064;-78
2023/05/15 02:06:03;;;;;;;72.28;33.00;;;;;;;10.45;100.00;101474.28;5062688;28;20040;-78
2023/05/15 02:08:31;;;;;;;57.67;31.92;;;;;;;10.46;100.00;101469.03;5049069;28;20898;-78
2023/05/15 02:11:01;;;;;;;58.28;30.98;;;;;;;10.48;100.00;101480.47;5016409;28;20045;-78
2023/05/15 02:13:31;;;;;;;63.78;30.80;;;;;;;10.47;100.00;101476.09;5033405;28;20060;-78
2023/05/15 02:15:58;;;;;;;68.93;31.25;;;;;;;10.44;100.00;101473.41;5006903;28;20063;-78
2023/05/15 02:18:27;;;;;;;53.50;27.60;;;;;;;10.42;100.00;101467.22;5043089;28;20052;-78
2023/05/15 02:20:59;;;;;;;59.20;29.15;;;;;;;10.41;100.00;101475.09;5035511;28;20048;-78
2023/05/15 02:23:27;;;;;;;66.13;31.27;;;;;;;10.39;100.00;101475.06;5050529;28;20052;-78
2023/05/15 02:26:30;;;;;;;62.70;28.55;;;;;;;10.36;100.00;101471.50;5056239;28;20053;-78
2023/05/15 02:29:26;;;;;;;77.07;29.00;;;;;;;10.35;100.00;101470.63;5037367;28;20051;-78
2023/05/15 02:32:09;;;;;;;88.38;30.55;;;;;;;10.32;100.00;101471.50;5047748;28;20045;-78
2023/05/15 02:34:50;;;;;;;54.40;28.95;;;;;;;10.31;100.00;101472.34;5033968;28;20045;-78
2023/05/15 02:37:26;;;;;;;82.65;29.73;;;;;;;10.34;100.00;101466.25;5034603;28;20052;-78
2023/05/15 02:39:56;;;;;;;179.40;36.10;;;;;;;10.38;100.00;101462.78;5049593;28;20053;-78
2023/05/15 02:42:28;;;;;;;;;;;;;;;10.39;100.00;101454.00;5050929;28;20770;-78
2023/05/15 02:44:57;;;;;;;115.78;27.83;;;;;;;10.39;100.00;101456.63;5034441;28;19921;-78
2023/05/15 02:47:26;;;;;;;74.22;28.00;;;;;;;10.36;100.00;101453.97;5040423;28;20497;-79
2023/05/15 02:49:55;;;;;;;118.28;28.52;;;;;;;10.36;100.00;101459.25;5034782;28;20045;-78
2023/05/15 02:52:24;;;;;;;137.48;27.90;;;;;;;10.33;100.00;101453.91;5047935;28;20048;-78
2023/05/15 02:54:57;;;;;;;139.88;29.48;;;;;;;10.28;100.00;101466.09;5048573;28;20056;-78
2023/05/15 02:57:25;;;;;;;85.15;26.52;;;;;;;10.24;100.00;101462.53;5049561;28;20044;-78
2023/05/15 02:59:56;;;;;;;120.18;32.03;;;;;;;10.20;100.00;101468.63;5005983;28;20064;-78
2023/05/15 03:02:23;;;;;;;60.92;30.88;;;;;;;10.18;100.00;101466.84;5032744;28;20049;-78
2023/05/15 03:04:51;;;;;;;65.15;29.23;;;;;;;10.15;100.00;101459.75;5054782;28;20040;-78
2023/05/15 03:07:18;;;;;;;68.65;31.67;;;;;;;10.13;100.00;101462.41;5064000;28;20057;-79
2023/05/15 03:09:45;;;;;;;62.38;30.25;;;;;;;10.13;100.00;101462.41;5067986;28;20044;-79
2023/05/15 03:12:13;;;;;;;67.75;30.90;;;;;;;10.13;100.00;101466.75;5020830;28;20045;-79
2023/05/15 03:14:40;;;;;;;116.93;35.47;;;;;;;10.12;100.00;101455.34;5034385;28;20060;-78
2023/05/15 03:17:08;;;;;;;86.53;35.65;;;;;;;10.10;100.00;101449.19;5022788;28;20056;-78
2023/05/15 03:19:35;;;;;;;78.00;35.38;;;;;;;10.10;100.00;101454.44;5016883;28;20064;-78
2023/05/15 03:22:03;;;;;;;62.85;32.78;;;;;;;10.08;100.00;101445.63;5033712;28;20061;-79
2023/05/15 03:24:30;;;;;;;66.45;35.00;;;;;;;10.06;100.00;101457.91;5032976;28;20056;-79
2023/05/15 03:26:58;;;;;;;72.18;38.03;;;;;;;10.07;100.00;101450.88;5049531;28;20059;-78
2023/05/15 03:29:25;;;;;;;55.55;34.42;;;;;;;10.08;100.00;101450.91;5021538;28;20044;-78
2023/05/15 03:31:52;;;;;;;58.38;32.83;;;;;;;10.10;100.00;101449.19;5010515;28;20063;-80
2023/05/15 03:34:20;;;;;;;101.28;36.80;;;;;;;10.08;100.00;101448.28;5045489;28;20045;-79
2023/05/15 03:36:47;;;;;;;94.20;33.50;;;;;;;10.06;100.00;101449.13;5039617;28;20032;-78
2023/05/15 03:39:14;;;;;;;96.40;33.72;;;;;;;10.02;100.00;101442.00;5057647;28;20044;-78
2023/05/15 03:41:42;;;;;;;104.85;35.35;;;;;;;10.00;100.00;101442.00;5065649;28;20056;-79
2023/05/15 03:44:11;;;;;;;75.72;31.77;;;;;;;9.99;100.00;101458.66;5047613;28;20728;-79
2023/05/15 03:46:39;;;;;;;70.75;34.22;;;;;;;9.98;100.00;101456.91;5047683;28;20057;-79
2023/05/15 03:49:10;;;;;;;77.10;29.15;;;;;;;9.99;100.00;101471.81;5025878;28;20037;-79
2023/05/15 03:51:38;;;;;;;118.18;28.40;;;;;;;9.98;100.00;101461.25;5006562;28;20055;-79
2023/05/15 03:54:05;;;;;;;79.82;28.42;;;;;;;9.94;100.00;101465.59;5031360;28;20059;-79
2023/05/15 03:56:33;;;;;;;94.97;27.98;;;;;;;9.93;100.00;101463.84;5045427;28;20049;-78
2023/05/15 03:59:01;;;;;;;53.50;25.15;;;;;;;9.93;100.00;101458.56;5046759;28;20041;-79
2023/05/15 04:01:29;;;;;;;58.35;27.10;;;;;;;9.92;100.00;101462.06;5018439;28;20416;-79
2023/05/15 04:03:56;;;;;;;69.30;27.17;;;;;;;9.92;100.00;101460.34;5004345;28;20045;-77
2023/05/15 04:06:23;;;;;;;56.60;26.88;;;;;;;9.90;100.00;101450.63;5054057;28;20059;-77
2023/05/15 04:08:51;;;;;;;76.03;30.80;;;;;;;9.87;100.00;101453.22;5005329;28;20063;-78
2023/05/15 04:11:18;;;;;;;52.45;27.55;;;;;;;9.85;100.00;101447.94;5063252;28;20048;-77
2023/05/15 04:13:45;;;;;;;51.85;26.90;;;;;;;9.87;100.00;101453.22;5042094;28;20529;-79
2023/05/15 04:16:14;;;;;;;46.88;26.27;;;;;;;9.83;100.00;101441.75;5041703;28;20536;-79
2023/05/15 04:18:42;;;;;;;43.67;25.40;;;;;;;9.82;100.00;101449.63;5017893;28;20044;-78
2023/05/15 04:21:09;;;;;;;42.40;24.50;;;;;;;9.80;100.00;101454.84;5036707;28;20049;-79
2023/05/15 04:23:37;;;;;;;42.88;25.33;;;;;;;9.79;100.00;101447.81;5036120;28;20056;-78
2023/05/15 04:26:04;;;;;;;40.28;24.35;;;;;;;9.81;100.00;101448.75;5040323;28;20440;-79
2023/05/15 04:28:32;;;;;;;39.20;23.83;;;;;;;9.80;100.00;101457.50;5055044;28;20056;-79
2023/05/15 04:30:59;;;;;;;35.92;22.00;;;;;;;9.79;100.00;101455.69;5064705;28;20060;-78
2023/05/15 04:33:27;;;;;;;35.83;23.75;;;;;;;9.80;100.00;101449.59;5050699;28;20063;-78
2023/05/15 04:35:54;;;;;;;32.45;23.10;;;;;;;9.81;100.00;101458.38;5007650;28;20083;-79
2023/05/15 04:38:22;;;;;;;31.52;22.70;;;;;;;9.73;100.00;101451.25;5031954;28;20493;-79
2023/05/15 04:40:50;;;;;;;36.80;26.13;;;;;;;9.71;100.00;101454.69;5018518;28;20048;-79
2023/05/15 04:43:17;;;;;;;33.92;24.90;;;;;;;9.71;100.00;101447.69;5050214;28;20060;-79
2023/05/15 04:45:45;;;;;;;37.58;25.00;;;;;;;9.75;100.00;101464.41;5032817;28;20052;-78
2023/05/15 04:48:13;;;;;;;32.28;23.13;;;;;;;9.75;100.00;101454.78;5031415;28;20063;-78
2023/05/15 04:50:42;;;;;;;32.63;24.75;;;;;;;9.75;100.00;101454.78;4985221;28;20048;-78
2023/05/15 04:53:10;;;;;;;32.15;24.40;;;;;;;9.78;100.00;101464.47;5048510;28;20532;-78
2023/05/15 04:55:38;;;;;;;28.02;22.05;;;;;;;9.78;100.00;101461.84;5035916;28;20044;-77
2023/05/15 04:58:05;;;;;;;25.15;21.65;;;;;;;9.76;100.00;101455.66;5047232;28;20464;-78
2023/05/15 05:00:32;;;;;;;27.42;21.65;;;;;;;9.81;100.00;101447.84;5052274;28;20543;-79
2023/05/15 05:03:00;;;;;;;28.42;21.67;;;;;;;9.84;100.00;101447.91;5031889;28;20049;-79
2023/05/15 05:05:27;;;;;;;25.45;21.42;;;;;;;9.84;100.00;101448.78;4992117;28;20477;-78
2023/05/15 05:07:55;;;;;;;26.55;20.67;;;;;;;9.86;100.00;101438.28;5028591;28;20045;-78
2023/05/15 05:10:22;;;;;;;25.25;20.83;;;;;;;9.89;100.00;101446.22;5039316;28;20045;-79
2023/05/15 05:12:50;;;;;;;29.05;24.25;;;;;;;9.93;100.00;101442.78;5021489;28;20057;-78
2023/05/15 05:15:17;;;;;;;30.40;23.20;;;;;;;9.94;100.00;101444.53;5031868;28;20060;-78
2023/05/15 05:17:45;;;;;;;28.83;21.05;;;;;;;9.95;100.00;101447.19;5021068;28;20429;-78
2023/05/15 05:20:12;;;;;;;25.60;22.02;;;;;;;10.01;100.00;101445.53;5021559;28;20048;-77
2023/05/15 05:22:41;;;;;;;25.63;21.25;;;;;;;10.02;100.00;101442.91;5026000;28;20051;-78
2023/05/15 05:25:09;;;;;;;21.60;18.80;;;;;;;10.03;100.00;101449.94;5033418;28;20414;-78
2023/05/15 05:27:37;;;;;;;26.05;21.20;;;;;;;10.04;100.00;101451.72;5020448;28;20057;-79
2023/05/15 05:30:07;;;;;;;24.55;21.83;;;;;;;10.09;100.00;101443.88;5054369;28;20413;-78
2023/05/15 05:32:34;;;;;;;25.57;21.10;;;;;;;10.11;100.00;101448.34;5006892;28;20056;-80
2023/05/15 05:35:02;;;;;;;22.67;20.30;;;;;;;10.14;100.00;101445.72;5001582;28;20313;-79
2023/05/15 05:37:30;;;;;;;22.48;19.35;;;;;;;10.15;100.00;101446.59;5036154;28;20048;-79
2023/05/15 05:39:58;;;;;;;20.88;18.20;;;;;;;10.18;100.00;101443.13;5038087;28;20044;-77
2023/05/15 05:42:26;;;;;;;25.23;22.42;;;;;;;10.24;100.00;101451.13;5023056;28;20048;-79
2023/05/15 05:44:54;;;;;;;28.25;23.00;;;;;;;10.32;100.00;101442.50;5019323;28;20063;-78
2023/05/15 05:47:21;;;;;;;27.70;21.92;;;;;;;10.39;100.00;101448.72;5022182;28;20056;-78
2023/05/15 05:49:50;;;;;;;28.50;23.45;;;;;;;10.46;100.00;101441.81;5031735;28;20055;-79
2023/05/15 05:52:19;;;;;;;21.95;19.65;;;;;;;10.52;100.00;101449.78;5011397;28;20497;-78
2023/05/15 05:54:47;;;;;;;21.75;19.30;;;;;;;10.59;100.00;101443.72;4999306;28;20055;-78
2023/05/15 05:57:14;;;;;;;24.80;22.20;;;;;;;10.70;100.00;101449.16;5009499;28;20056;-78
2023/05/15 05:59:42;;;;;;;22.98;20.63;;;;;;;10.93;100.00;101447.66;5014873;28;20412;-78
2023/05/15 06:02:10;;;;;;;20.00;17.92;;;;;;;11.41;100.00;101455.19;5059392;28;20830;-79
2023/05/15 06:04:38;;;;;;;19.85;16.65;;;;;;;11.93;100.00;101453.00;5046582;28;20037;-78
2023/05/15 06:07:06;;;;;;;21.98;16.67;;;;;;;12.40;100.00;101449.78;5005027;28;20063;-78
2023/05/15 06:09:36;;;;;;;;;;;;;;;12.72;100.00;101446.41;5049653;28;20246;-78
2023/05/15 06:12:03;;;;;;;15.90;13.27;;;;;;;12.79;100.00;101455.25;5030496;28;24968;-78
2023/05/15 06:14:34;;;;;;;15.93;13.60;;;;;;;12.76;100.00;101455.22;5033202;28;20033;-78
2023/05/15 06:17:02;;;;;;;17.48;13.90;;;;;;;12.64;100.00;101456.06;5027332;28;21035;-79
2023/05/15 06:19:30;;;;;;;17.77;14.93;;;;;;;12.57;100.00;101459.53;5048328;28;20048;-79
2023/05/15 06:21:58;;;;;;;17.48;15.77;;;;;;;12.44;100.00;101458.63;5037103;28;20600;-79
2023/05/15 06:24:26;;;;;;;15.50;13.90;;;;;;;12.41;100.00;101467.41;5009810;28;20041;-78
2023/05/15 06:26:53;;;;;;;14.98;13.25;;;;;;;12.51;100.00;101455.09;5013379;28;20502;-79
2023/05/15 06:29:20;;;;;;;11.88;10.75;;;;;;;12.68;100.00;101458.72;5030000;28;20041;-78
2023/05/15 06:31:48;;;;;;;12.18;9.60;;;;;;;12.85;100.00;101461.44;5018774;28;20041;-79
2023/05/15 06:34:15;;;;;;;10.52;9.63;;;;;;;12.96;100.00;101457.94;5009683;28;20095;-78
2023/05/15 06:36:42;;;;;;;9.32;8.43;;;;;;;13.08;100.00;101452.69;5030431;28;20056;-78
2023/05/15 06:39:10;;;;;;;10.38;8.85;;;;;;;13.27;100.00;101457.13;4999450;28;20041;-79
2023/05/15 06:41:37;;;;;;;11.48;9.43;;;;;;;13.44;100.00;101445.75;5047649;28;20099;-78
2023/05/15 06:44:11;;;;;;;14.20;12.80;;;;;;;13.68;100.00;101436.91;5025120;28;20057;-78
2023/05/15 06:46:41;;;;;;;13.45;10.38;;;;;;;13.82;100.00;101445.72;5017917;28;20063;-78
2023/05/15 06:49:08;;;;;;;12.25;11.15;;;;;;;13.94;100.00;101438.66;5045436;28;20053;-78
2023/05/15 06:51:36;;;;;;;9.40;8.50;;;;;;;14.01;100.00;101440.41;5031445;28;20052;-78
2023/05/15 06:54:03;;;;;;;10.77;9.20;;;;;;;14.01;100.00;101441.28;4989205;28;20056;-79
2023/05/15 06:56:30;;;;;;;9.38;8.48;;;;;;;14.10;100.00;101444.81;5049150;28;20052;-78
2023/05/15 06:58:58;;;;;;;12.88;9.80;;;;;;;14.10;100.00;101448.34;5044615;28;20055;-78
2023/05/15 07:01:25;;;;;;;10.65;9.73;;;;;;;14.06;100.00;101449.22;5009717;28;20041;-78
2023/05/15 07:03:53;;;;;;;10.18;8.35;;;;;;;14.02;100.00;101445.69;5037231;28;20049;-79
2023/05/15 07:06:20;;;;;;;8.60;7.70;;;;;;;13.98;100.00;101446.59;5045465;28;20041;-78
2023/05/15 07:08:48;;;;;;;8.30;7.60;;;;;;;13.99;100.00;101451.00;5021731;28;20048;-78
2023/05/15 07:11:15;;;;;;;8.90;8.00;;;;;;;13.97;100.00;101446.56;5032419;28;20067;-78
2023/05/15 07:13:43;;;;;;;8.85;7.78;;;;;;;13.95;100.00;101443.97;5048980;28;20501;-78
2023/05/15 07:16:10;;;;;;;9.45;8.60;;;;;;;13.99;100.00;101443.06;5031327;28;20036;-78
2023/05/15 07:18:39;;;;;;;10.05;9.05;;;;;;;14.07;100.00;101437.75;5018698;28;20056;-78
2023/05/15 07:21:06;;;;;;;11.88;9.10;;;;;;;14.14;100.00;101435.94;5045547;28;20037;-78
2023/05/15 07:23:34;;;;;;;9.57;8.57;;;;;;;14.16;100.00;101429.78;5037852;28;20049;-78
2023/05/15 07:26:01;;;;;;;8.52;7.72;;;;;;;14.22;100.00;101427.09;4999969;28;20341;-78
2023/05/15 07:28:29;;;;;;;9.38;8.38;;;;;;;14.33;100.00;101434.13;5046838;28;20426;-78
2023/05/15 07:30:56;;;;;;;9.25;8.32;;;;;;;14.41;100.00;101425.28;5011957;28;20044;-78
2023/05/15 07:33:24;;;;;;;10.43;9.52;;;;;;;14.48;100.00;101422.59;5035068;28;20056;-78
2023/05/15 07:35:51;;;;;;;9.30;8.50;;;;;;;14.59;100.00;101420.81;5034378;28;20490;-78
2023/05/15 07:38:19;;;;;;;8.20;7.43;;;;;;;14.65;100.00;101428.78;5036047;28;20084;-78
2023/05/15 07:40:47;;;;;;;9.75;6.90;;;;;;;14.69;100.00;101429.63;4991634;28;20048;-78
2023/05/15 07:43:14;;;;;;;6.43;5.93;;;;;;;14.69;100.00;101434.91;5031300;28;20061;-79
2023/05/15 07:45:41;;;;;;;9.02;7.85;;;;;;;14.73;100.00;101426.09;5051055;28;20052;-80
2023/05/15 07:48:17;;;;;;;7.93;7.20;;;;;;;14.71;100.00;101426.09;5019062;28;20049;-78
2023/05/15 07:50:46;;;;;;;13.50;6.70;;;;;;;14.76;100.00;101424.31;5035080;28;20048;-80
2023/05/15 07:53:15;;;;;;;10.70;6.25;;;;;;;14.80;100.00;101427.78;5016430;28;20048;-79
2023/05/15 07:55:43;;;;;;;6.63;6.00;;;;;;;14.82;100.00;101434.88;5036536;28;20501;-81
2023/05/15 07:58:12;;;;;;;14.40;6.43;;;;;;;14.78;100.00;101435.78;5026376;28;20040;-79
2023/05/15 08:00:41;;;;;;;8.98;6.78;;;;;;;14.82;100.00;101424.25;4997706;28;20052;-79
2023/05/15 08:03:09;;;;;;;7.47;6.45;;;;;;;14.90;100.00;101424.22;5031800;28;20074;-80
2023/05/15 08:05:36;;;;;;;10.18;7.13;;;;;;;15.00;100.00;101428.56;5043491;28;20044;-79
2023/05/15 08:08:04;;;;;;;7.05;6.45;;;;;;;15.07;100.00;101429.44;5015978;28;20083;-79
2023/05/15 08:10:31;;;;;;;9.25;6.47;;;;;;;15.09;100.00;101432.09;5025291;28;20072;-79
2023/05/15 08:12:59;;;;;;;7.65;6.88;;;;;;;15.10;100.00;101418.78;5005588;28;20045;-79
2023/05/15 08:15:26;;;;;;;11.13;8.98;;;;;;;15.22;100.00;101428.47;5036828;28;20055;-79
2023/05/15 08:17:54;;;;;;;9.32;6.82;;;;;;;15.36;100.00;101437.19;5023453;28;20060;-79
2023/05/15 08:20:21;;;;;;;7.00;6.40;;;;;;;15.46;100.00;101427.38;5031051;28;20866;-79
2023/05/15 08:22:49;;;;;;;8.10;7.30;;;;;;;15.51;100.00;101425.56;5024687;28;20409;-79
2023/05/15 08:25:17;;;;;;;7.13;6.38;;;;;;;15.53;100.00;101426.44;5024086;28;20056;-79
2023/05/15 08:27:46;;;;;;;7.63;6.30;;;;;;;15.39;100.00;101418.59;4986057;28;20052;-79
2023/05/15 08:30:14;;;;;;;6.53;5.78;;;;;;;15.33;100.00;101420.38;5042897;28;20893;-79
2023/05/15 08:32:44;;;;;;;8.73;7.15;;;;;;;15.28;100.00;101417.78;5030262;28;20047;-79
2023/05/15 08:35:12;;;;;;;8.60;7.68;;;;;;;15.25;100.00;101420.44;5027073;28;20414;-79
2023/05/15 08:37:39;;;;;;;11.32;6.57;;;;;;;15.24;100.00;101421.34;5029445;28;20067;-79
2023/05/15 08:40:08;;;;;;;6.63;6.07;;;;;;;15.18;100.00;101410.78;5044515;28;20059;-79
2023/05/15 08:42:56;;;;;;;9.05;7.50;;;;;;;15.15;100.00;101413.44;5041864;28;20519;-79
2023/05/15 08:45:24;;;;;;;7.10;6.40;;;;;;;15.12;100.00;101417.03;5031555;28;20460;-80
2023/05/15 08:47:52;;;;;;;9.27;5.32;;;;;;;15.07;100.00;101413.50;5036168;28;20616;-79
2023/05/15 08:50:21;;;;;;;6.28;5.68;;;;;;;15.10;100.00;101408.16;5033931;28;20096;-79
2023/05/15 08:52:50;;;;;;;5.38;4.88;;;;;;;15.15;100.00;101400.19;5031306;28;20048;-79
2023/05/15 08:55:19;;;;;;;8.63;6.57;;;;;;;15.14;100.00;101409.94;5027520;28;20404;-79
2023/05/15 08:57:46;;;;;;;6.20;5.15;;;;;;;15.18;100.00;101408.13;5044953;28;20064;-79
2023/05/15 09:00:15;;;;;;;7.28;5.55;;;;;;;15.18;100.00;101413.44;5003430;28;20045;-79
2023/05/15 09:02:43;;;;;;;5.60;4.95;;;;;;;15.18;100.00;101411.66;5043168;28;20045;-79
2023/05/15 09:05:10;;;;;;;8.43;5.22;;;;;;;15.18;100.00;101406.34;5027886;28;20526;-79
2023/05/15 09:07:41;;;;;;;5.15;4.75;;;;;;;15.27;100.00;101400.06;5017985;28;20068;-79
2023/05/15 09:10:08;;;;;;;;;;;;;;;15.28;100.00;101404.50;5034467;28;20060;-79
2023/05/15 09:12:45;;;;;;;5.97;4.68;;;;;;;15.33;100.00;101407.13;5065426;28;19928;-79
2023/05/15 09:15:16;;;;;;;6.60;5.28;;;;;;;15.33;100.00;101405.38;4997247;28;20060;-80
2023/05/15 09:17:45;;;;;;;7.22;5.13;;;;;;;15.32;100.00;101410.69;5055253;28;20044;-79
2023/05/15 09:20:31;;;;;;;5.32;4.78;;;;;;;15.18;100.00;101410.78;5032019;28;20056;-79
2023/05/15 09:23:02;;;;;;;6.13;5.03;;;;;;;15.26;100.00;101406.28;5053729;28;20056;-80
2023/05/15 09:25:40;;;;;;;8.27;4.95;;;;;;;15.36;100.00;101405.31;5048599;28;20045;-79
2023/05/15 09:28:09;;;;;;;5.53;4.93;;;;;;;15.43;100.00;101406.16;5044675;28;20398;-79
2023/05/15 09:30:40;;;;;;;8.23;5.60;;;;;;;15.50;100.00;101409.63;5012353;28;20530;-79
2023/05/15 09:33:09;;;;;;;5.20;4.50;;;;;;;15.58;100.00;101406.03;5031074;28;21729;-80
2023/05/15 09:35:38;;;;;;;6.05;5.13;;;;;;;15.53;100.00;101418.47;5018143;28;20054;-79
2023/05/15 09:38:11;;;;;;;5.50;5.00;;;;;;;15.54;100.00;101403.44;5035619;28;20041;-79
2023/05/15 09:40:42;;;;;;;5.45;4.78;;;;;;;15.52;100.00;101411.41;5036854;28;20053;-79
2023/05/15 09:43:12;;;;;;;5.47;5.07;;;;;;;15.59;100.00;101405.16;5048540;28;20056;-79
2023/05/15 09:45:40;;;;;;;5.70;5.20;;;;;;;15.65;100.00;101406.88;5023246;28;20497;-79
2023/05/15 09:48:07;;;;;;;9.57;4.95;;;;;;;15.70;100.00;101420.09;5038456;28;20071;-79
2023/05/15 09:50:40;;;;;;;5.45;4.93;;;;;;;15.66;100.00;101415.72;5033805;28;20049;-78
2023/05/15 09:53:10;;;;;;;7.10;5.43;;;;;;;15.60;100.00;101406.91;5055868;28;20919;-78
2023/05/15 09:55:37;;;;;;;6.75;5.00;;;;;;;15.70;100.00;101409.47;5024504;28;20150;-80
2023/05/15 09:58:17;;;;;;;8.18;5.10;;;;;;;15.74;100.00;101406.78;5029420;28;20076;-80
2023/05/15 10:00:47;;;;;;;6.13;5.25;;;;;;;15.73;100.00;101415.69;5007810;28;20052;-79
2023/05/15 10:03:18;;;;;;;6.18;5.57;;;;;;;15.74;100.00;101416.56;5017786;28;20044;-79
2023/05/15 10:05:46;;;;;;;7.38;6.68;;;;;;;15.79;100.00;101417.41;5035377;28;20053;-79
2023/05/15 10:08:24;;;;;;;7.47;6.78;;;;;;;15.81;100.00;101417.41;5023103;28;21420;-79
2023/05/15 10:10:53;;;;;;;7.43;6.75;;;;;;;15.89;100.00;101408.44;5056198;28;20055;-79
2023/05/15 10:13:21;;;;;;;7.82;6.07;;;;;;;16.03;100.00;101410.06;5045768;28;20053;-84
2023/05/15 10:15:53;;;;;;;5.68;4.95;;;;;;;16.12;100.00;101412.63;4986897;28;20044;-83
2023/05/15 10:18:24;;;;;;;6.60;5.90;;;;;;;16.15;100.00;101410.81;5035756;28;20412;-81
2023/05/15 10:20:53;;;;;;;8.35;6.45;;;;;;;16.18;100.00;101415.22;5032424;28;20052;-81
2023/05/15 10:23:21;;;;;;;5.70;5.15;;;;;;;16.25;100.00;101414.25;5048428;28;20075;-80
2023/05/15 10:25:59;;;;;;;7.35;5.85;;;;;;;16.35;100.00;101415.94;5026608;28;20056;-81
2023/05/15 10:28:30;;;;;;;6.95;6.05;;;;;;;16.40;100.00;101407.88;5057492;28;20056;-80
2023/05/15 10:31:00;;;;;;;5.70;5.18;;;;;;;16.34;100.00;101418.59;5020369;28;20501;-81
2023/05/15 10:33:30;;;;;;;7.00;6.30;;;;;;;16.36;100.00;101416.81;4999417;28;20045;-81
2023/05/15 10:35:58;;;;;;;6.90;5.43;;;;;;;16.42;100.00;101427.38;5032638;28;20046;-81
2023/05/15 10:38:28;;;;;;;6.30;4.60;;;;;;;16.42;100.00;101423.84;5050737;28;20044;-81
2023/05/15 10:40:57;;;;;;;4.55;4.15;;;;;;;16.35;100.00;101428.31;5021838;28;20555;-81
2023/05/15 10:43:43;;;;;;;8.57;4.40;;;;;;;16.37;100.00;101419.44;5049987;28;20060;-81
2023/05/15 10:46:15;;;;;;;6.45;4.50;;;;;;;16.45;100.00;101421.16;5054238;28;20064;-81
2023/05/15 10:48:42;;;;;;;8.07;4.07;;;;;;;16.50;100.00;101420.19;4986496;28;20049;-81
2023/05/15 10:51:22;;;;;;;4.10;3.75;;;;;;;16.56;100.00;101419.22;5050897;28;20056;-81
2023/05/15 10:53:50;;;;;;;5.07;4.57;;;;;;;16.60;100.00;101414.72;5038691;28;20044;-80
2023/05/15 10:56:18;;;;;;;8.05;4.57;;;;;;;16.61;100.00;101420.03;5014140;28;20045;-81
2023/05/15 10:58:50;;;;;;;4.82;4.43;;;;;;;16.69;100.00;101422.59;5037690;28;20041;-81
2023/05/15 11:01:31;;;;;;;4.63;4.05;;;;;;;16.71;100.00;101416.38;5048997;28;20052;-81
2023/05/15 11:04:15;;;;;;;4.35;4.05;;;;;;;16.73;100.00;101417.22;5028741;28;20048;-81
2023/05/15 11:06:48;;;;;;;5.85;5.18;;;;;;;16.72;100.00;101404.81;5058724;28;20055;-80
2023/05/15 11:09:35;;;;;;;5.82;4.18;;;;;;;16.66;100.00;101410.22;5062194;28;20041;-81
2023/05/15 11:12:05;;;;;;;9.25;4.03;;;;;;;16.53;100.00;101419.25;5040477;28;20051;-81
2023/05/15 11:14:38;;;;;;;4.95;4.50;;;;;;;16.47;100.00;101420.22;5054668;28;20052;-80
2023/05/15 11:17:07;;;;;;;8.00;4.10;;;;;;;16.37;100.00;101422.09;5046466;28;20119;-81
2023/05/15 11:19:37;;;;;;;5.18;4.75;;;;;;;16.30;100.00;101422.19;5012367;28;20036;-81
2023/05/15 11:22:07;;;;;;;5.50;5.00;;;;;;;16.35;100.00;101421.25;5067202;28;20044;-81